sensor_id;sensor_type;location;lat;lon;timestamp;P1;durP1;ratioP1;P2;durP2;ratioP2
56081;SDS011;41957;52.060;5.138;2022-12-29T00:00:52;11.20;;;2.70;;
56081;SDS011;41957;52.060;5.138;2022-12-29T00:03:17;8.93;;;2.28;;
56081;SDS011;41957;52.060;5.138;2022-12-29T00:05:42;9.85;;;2.60;;
56081;SDS011;41957;52.060;5.138;2022-12-29T00:08:07;11.20;;;2.67;;
56081;SDS011;41957;52.060;5.138;2022-12-29T00:10:33;9.10;;;2.05;;
56081;SDS011;41957;52.060;5.138;2022-12-29T00:12:58;8.60;;;2.40;;
56081;SDS011;41957;52.060;5.138;2022-12-29T00:15:42;9.00;;;2.40;;
56081;SDS011;41957;52.060;5.138;2022-12-29T00:18:07;10.52;;;2.40;;
56081;SDS011;41957;52.060;5.138;2022-12-29T00:20:36;8.77;;;2.22;;
56081;SDS011;41957;52.060;5.138;2022-12-29T00:23:21;10.18;;;2.55;;
56081;SDS011;41957;52.060;5.138;2022-12-29T00:26:13;9.63;;;2.30;;
56081;SDS011;41957;52.060;5.138;2022-12-29T00:28:59;8.98;;;2.30;;
56081;SDS011;41957;52.060;5.138;2022-12-29T00:31:43;6.30;;;1.88;;
56081;SDS011;41957;52.060;5.138;2022-12-29T00:34:27;10.07;;;2.50;;
56081;SDS011;41957;52.060;5.138;2022-12-29T00:37:11;8.23;;;2.33;;
56081;SDS011;41957;52.060;5.138;2022-12-29T00:39:37;8.98;;;2.33;;
56081;SDS011;41957;52.060;5.138;2022-12-29T00:42:41;7.85;;;2.10;;
56081;SDS011;41957;52.060;5.138;2022-12-29T00:45:24;8.45;;;2.30;;
56081;SDS011;41957;52.060;5.138;2022-12-29T00:47:50;8.30;;;2.20;;
56081;SDS011;41957;52.060;5.138;2022-12-29T00:50:15;9.13;;;2.30;;
56081;SDS011;41957;52.060;5.138;2022-12-29T00:52:40;6.68;;;1.92;;
56081;SDS011;41957;52.060;5.138;2022-12-29T00:55:06;9.25;;;2.20;;
56081;SDS011;41957;52.060;5.138;2022-12-29T00:57:32;9.70;;;2.42;;
56081;SDS011;41957;52.060;5.138;2022-12-29T00:59:57;7.97;;;2.17;;
56081;SDS011;41957;52.060;5.138;2022-12-29T01:02:22;7.32;;;2.00;;
56081;SDS011;41957;52.060;5.138;2022-12-29T01:04:47;9.45;;;2.58;;
56081;SDS011;41957;52.060;5.138;2022-12-29T01:07:13;11.77;;;2.63;;
56081;SDS011;41957;52.060;5.138;2022-12-29T01:09:38;11.23;;;2.38;;
56081;SDS011;41957;52.060;5.138;2022-12-29T01:12:22;9.15;;;2.20;;
56081;SDS011;41957;52.060;5.138;2022-12-29T01:15:05;9.80;;;2.42;;
56081;SDS011;41957;52.060;5.138;2022-12-29T01:17:32;8.85;;;2.40;;
56081;SDS011;41957;52.060;5.138;2022-12-29T01:19:58;10.75;;;2.60;;
56081;SDS011;41957;52.060;5.138;2022-12-29T01:22:23;7.35;;;2.03;;
56081;SDS011;41957;52.060;5.138;2022-12-29T01:24:48;9.45;;;2.25;;
56081;SDS011;41957;52.060;5.138;2022-12-29T01:27:14;9.15;;;2.10;;
56081;SDS011;41957;52.060;5.138;2022-12-29T01:29:39;9.65;;;2.13;;
56081;SDS011;41957;52.060;5.138;2022-12-29T01:32:05;8.10;;;2.03;;
56081;SDS011;41957;52.060;5.138;2022-12-29T01:34:30;7.32;;;2.05;;
56081;SDS011;41957;52.060;5.138;2022-12-29T01:36:55;8.65;;;1.88;;
56081;SDS011;41957;52.060;5.138;2022-12-29T01:39:21;8.88;;;2.10;;
56081;SDS011;41957;52.060;5.138;2022-12-29T01:41:46;7.93;;;2.10;;
56081;SDS011;41957;52.060;5.138;2022-12-29T01:47:11;6.88;;;1.90;;
56081;SDS011;41957;52.060;5.138;2022-12-29T01:49:37;6.82;;;1.83;;
56081;SDS011;41957;52.060;5.138;2022-12-29T01:52:04;6.38;;;1.75;;
56081;SDS011;41957;52.060;5.138;2022-12-29T01:54:34;7.90;;;1.98;;
56081;SDS011;41957;52.060;5.138;2022-12-29T01:57:08;7.13;;;1.83;;
56081;SDS011;41957;52.060;5.138;2022-12-29T01:59:38;8.10;;;1.92;;
56081;SDS011;41957;52.060;5.138;2022-12-29T02:02:07;7.28;;;1.85;;
56081;SDS011;41957;52.060;5.138;2022-12-29T02:04:33;6.97;;;1.88;;
56081;SDS011;41957;52.060;5.138;2022-12-29T02:07:03;8.77;;;2.20;;
56081;SDS011;41957;52.060;5.138;2022-12-29T02:09:32;9.80;;;2.22;;
56081;SDS011;41957;52.060;5.138;2022-12-29T02:11:58;7.90;;;2.10;;
56081;SDS011;41957;52.060;5.138;2022-12-29T02:14:24;9.50;;;2.05;;
56081;SDS011;41957;52.060;5.138;2022-12-29T02:22:27;8.90;;;2.03;;
56081;SDS011;41957;52.060;5.138;2022-12-29T02:42:12;6.47;;;1.70;;
56081;SDS011;41957;52.060;5.138;2022-12-29T02:44:47;7.97;;;1.83;;
56081;SDS011;41957;52.060;5.138;2022-12-29T02:50:41;6.70;;;1.75;;
56081;SDS011;41957;52.060;5.138;2022-12-29T02:53:29;6.65;;;1.80;;
56081;SDS011;41957;52.060;5.138;2022-12-29T02:56:16;5.22;;;1.80;;
56081;SDS011;41957;52.060;5.138;2022-12-29T02:58:42;8.73;;;1.98;;
56081;SDS011;41957;52.060;5.138;2022-12-29T03:12:14;6.90;;;1.70;;
56081;SDS011;41957;52.060;5.138;2022-12-29T03:21:09;8.20;;;1.63;;
56081;SDS011;41957;52.060;5.138;2022-12-29T03:23:42;5.55;;;1.70;;
56081;SDS011;41957;52.060;5.138;2022-12-29T03:26:12;7.88;;;1.73;;
56081;SDS011;41957;52.060;5.138;2022-12-29T03:29:01;5.22;;;1.63;;
56081;SDS011;41957;52.060;5.138;2022-12-29T03:31:27;8.02;;;1.60;;
56081;SDS011;41957;52.060;5.138;2022-12-29T03:33:52;4.93;;;1.48;;
56081;SDS011;41957;52.060;5.138;2022-12-29T03:36:24;8.02;;;1.67;;
56081;SDS011;41957;52.060;5.138;2022-12-29T03:38:55;5.30;;;1.52;;
56081;SDS011;41957;52.060;5.138;2022-12-29T03:41:28;5.03;;;1.45;;
56081;SDS011;41957;52.060;5.138;2022-12-29T03:43:56;6.40;;;1.60;;
56081;SDS011;41957;52.060;5.138;2022-12-29T03:46:21;5.30;;;1.48;;
56081;SDS011;41957;52.060;5.138;2022-12-29T03:48:47;7.38;;;1.73;;
56081;SDS011;41957;52.060;5.138;2022-12-29T03:51:12;6.28;;;1.45;;
56081;SDS011;41957;52.060;5.138;2022-12-29T03:53:37;8.32;;;1.80;;
56081;SDS011;41957;52.060;5.138;2022-12-29T03:56:03;6.13;;;1.50;;
56081;SDS011;41957;52.060;5.138;2022-12-29T03:58:28;6.10;;;1.40;;
56081;SDS011;41957;52.060;5.138;2022-12-29T04:00:54;6.70;;;1.60;;
56081;SDS011;41957;52.060;5.138;2022-12-29T04:03:19;8.75;;;1.90;;
56081;SDS011;41957;52.060;5.138;2022-12-29T04:05:45;7.05;;;1.52;;
56081;SDS011;41957;52.060;5.138;2022-12-29T04:08:10;8.23;;;1.70;;
56081;SDS011;41957;52.060;5.138;2022-12-29T04:10:35;5.00;;;1.30;;
56081;SDS011;41957;52.060;5.138;2022-12-29T04:13:01;3.80;;;1.40;;
56081;SDS011;41957;52.060;5.138;2022-12-29T04:15:26;4.75;;;1.40;;
56081;SDS011;41957;52.060;5.138;2022-12-29T04:17:51;4.32;;;1.50;;
56081;SDS011;41957;52.060;5.138;2022-12-29T04:20:17;7.55;;;1.65;;
56081;SDS011;41957;52.060;5.138;2022-12-29T04:23:01;5.68;;;1.60;;
56081;SDS011;41957;52.060;5.138;2022-12-29T04:25:28;6.57;;;1.55;;
56081;SDS011;41957;52.060;5.138;2022-12-29T04:27:55;5.30;;;1.50;;
56081;SDS011;41957;52.060;5.138;2022-12-29T04:30:20;7.32;;;1.85;;
56081;SDS011;41957;52.060;5.138;2022-12-29T04:32:45;5.60;;;1.50;;
56081;SDS011;41957;52.060;5.138;2022-12-29T04:35:10;5.93;;;1.60;;
56081;SDS011;41957;52.060;5.138;2022-12-29T04:37:36;7.88;;;1.80;;
56081;SDS011;41957;52.060;5.138;2022-12-29T04:40:01;5.78;;;1.60;;
56081;SDS011;41957;52.060;5.138;2022-12-29T04:42:26;7.07;;;1.83;;
56081;SDS011;41957;52.060;5.138;2022-12-29T04:44:52;8.43;;;1.85;;
56081;SDS011;41957;52.060;5.138;2022-12-29T04:47:17;6.05;;;1.33;;
56081;SDS011;41957;52.060;5.138;2022-12-29T04:49:42;7.13;;;1.60;;
56081;SDS011;41957;52.060;5.138;2022-12-29T04:52:08;5.78;;;1.40;;
56081;SDS011;41957;52.060;5.138;2022-12-29T04:54:33;6.22;;;1.60;;
56081;SDS011;41957;52.060;5.138;2022-12-29T04:56:59;5.53;;;1.58;;
56081;SDS011;41957;52.060;5.138;2022-12-29T04:59:24;6.63;;;1.60;;
56081;SDS011;41957;52.060;5.138;2022-12-29T05:01:49;5.72;;;1.60;;
56081;SDS011;41957;52.060;5.138;2022-12-29T05:04:15;10.15;;;1.90;;
56081;SDS011;41957;52.060;5.138;2022-12-29T05:06:40;7.47;;;1.63;;
56081;SDS011;41957;52.060;5.138;2022-12-29T05:09:05;7.57;;;1.70;;
56081;SDS011;41957;52.060;5.138;2022-12-29T05:11:31;8.00;;;1.80;;
56081;SDS011;41957;52.060;5.138;2022-12-29T05:13:56;9.93;;;1.92;;
56081;SDS011;41957;52.060;5.138;2022-12-29T05:16:22;9.25;;;1.92;;
56081;SDS011;41957;52.060;5.138;2022-12-29T05:18:47;11.73;;;1.83;;
56081;SDS011;41957;52.060;5.138;2022-12-29T05:21:12;9.85;;;1.80;;
56081;SDS011;41957;52.060;5.138;2022-12-29T05:23:38;11.57;;;2.20;;
56081;SDS011;41957;52.060;5.138;2022-12-29T05:26:03;9.88;;;2.10;;
56081;SDS011;41957;52.060;5.138;2022-12-29T05:28:28;12.48;;;2.30;;
56081;SDS011;41957;52.060;5.138;2022-12-29T05:30:54;10.23;;;1.98;;
56081;SDS011;41957;52.060;5.138;2022-12-29T05:33:19;10.20;;;1.85;;
56081;SDS011;41957;52.060;5.138;2022-12-29T05:35:45;10.07;;;1.92;;
56081;SDS011;41957;52.060;5.138;2022-12-29T05:38:11;7.80;;;1.67;;
56081;SDS011;41957;52.060;5.138;2022-12-29T05:40:36;9.35;;;2.00;;
56081;SDS011;41957;52.060;5.138;2022-12-29T05:43:01;11.52;;;2.10;;
56081;SDS011;41957;52.060;5.138;2022-12-29T05:45:27;10.13;;;2.13;;
56081;SDS011;41957;52.060;5.138;2022-12-29T05:47:52;11.70;;;2.03;;
56081;SDS011;41957;52.060;5.138;2022-12-29T05:50:17;9.35;;;2.20;;
56081;SDS011;41957;52.060;5.138;2022-12-29T05:52:43;9.07;;;2.10;;
56081;SDS011;41957;52.060;5.138;2022-12-29T05:55:08;11.85;;;2.08;;
56081;SDS011;41957;52.060;5.138;2022-12-29T05:57:34;7.50;;;1.63;;
56081;SDS011;41957;52.060;5.138;2022-12-29T05:59:59;10.77;;;1.98;;
56081;SDS011;41957;52.060;5.138;2022-12-29T06:02:25;12.15;;;2.22;;
56081;SDS011;41957;52.060;5.138;2022-12-29T06:04:50;8.93;;;2.10;;
56081;SDS011;41957;52.060;5.138;2022-12-29T06:07:15;10.60;;;1.98;;
56081;SDS011;41957;52.060;5.138;2022-12-29T06:09:41;9.73;;;2.03;;
56081;SDS011;41957;52.060;5.138;2022-12-29T06:12:06;13.35;;;2.40;;
56081;SDS011;41957;52.060;5.138;2022-12-29T06:14:31;7.97;;;1.98;;
56081;SDS011;41957;52.060;5.138;2022-12-29T06:16:57;11.90;;;2.20;;
56081;SDS011;41957;52.060;5.138;2022-12-29T06:19:22;13.07;;;2.50;;
56081;SDS011;41957;52.060;5.138;2022-12-29T06:21:47;10.45;;;2.33;;
56081;SDS011;41957;52.060;5.138;2022-12-29T06:24:13;11.48;;;2.40;;
56081;SDS011;41957;52.060;5.138;2022-12-29T06:26:38;13.32;;;2.25;;
56081;SDS011;41957;52.060;5.138;2022-12-29T06:29:05;10.88;;;2.25;;
56081;SDS011;41957;52.060;5.138;2022-12-29T06:31:31;12.82;;;2.40;;
56081;SDS011;41957;52.060;5.138;2022-12-29T06:33:57;9.75;;;2.20;;
56081;SDS011;41957;52.060;5.138;2022-12-29T06:36:22;10.15;;;2.30;;
56081;SDS011;41957;52.060;5.138;2022-12-29T06:38:48;14.57;;;2.58;;
56081;SDS011;41957;52.060;5.138;2022-12-29T06:41:13;10.73;;;2.00;;
56081;SDS011;41957;52.060;5.138;2022-12-29T06:43:39;10.07;;;2.20;;
56081;SDS011;41957;52.060;5.138;2022-12-29T06:46:04;12.82;;;2.20;;
56081;SDS011;41957;52.060;5.138;2022-12-29T06:48:30;10.25;;;2.53;;
56081;SDS011;41957;52.060;5.138;2022-12-29T06:50:55;10.10;;;2.25;;
56081;SDS011;41957;52.060;5.138;2022-12-29T06:53:21;12.32;;;2.60;;
56081;SDS011;41957;52.060;5.138;2022-12-29T06:55:46;11.00;;;2.42;;
56081;SDS011;41957;52.060;5.138;2022-12-29T06:58:11;12.60;;;2.50;;
56081;SDS011;41957;52.060;5.138;2022-12-29T07:00:37;12.38;;;2.72;;
56081;SDS011;41957;52.060;5.138;2022-12-29T07:03:02;11.32;;;2.50;;
56081;SDS011;41957;52.060;5.138;2022-12-29T07:05:28;13.10;;;2.42;;
56081;SDS011;41957;52.060;5.138;2022-12-29T07:07:56;12.50;;;2.63;;
56081;SDS011;41957;52.060;5.138;2022-12-29T07:10:22;12.32;;;2.42;;
56081;SDS011;41957;52.060;5.138;2022-12-29T07:12:48;15.52;;;2.65;;
56081;SDS011;41957;52.060;5.138;2022-12-29T07:15:13;12.52;;;2.58;;
56081;SDS011;41957;52.060;5.138;2022-12-29T07:17:38;14.20;;;2.72;;
56081;SDS011;41957;52.060;5.138;2022-12-29T07:20:04;12.23;;;2.45;;
56081;SDS011;41957;52.060;5.138;2022-12-29T07:22:30;12.80;;;2.45;;
56081;SDS011;41957;52.060;5.138;2022-12-29T07:24:55;13.63;;;2.85;;
56081;SDS011;41957;52.060;5.138;2022-12-29T07:27:21;13.48;;;2.78;;
56081;SDS011;41957;52.060;5.138;2022-12-29T07:29:46;10.98;;;2.10;;
56081;SDS011;41957;52.060;5.138;2022-12-29T07:32:12;11.70;;;2.13;;
56081;SDS011;41957;52.060;5.138;2022-12-29T07:34:37;12.18;;;2.22;;
56081;SDS011;41957;52.060;5.138;2022-12-29T07:37:04;12.07;;;2.30;;
56081;SDS011;41957;52.060;5.138;2022-12-29T07:39:29;12.02;;;2.40;;
56081;SDS011;41957;52.060;5.138;2022-12-29T07:41:55;12.60;;;2.53;;
56081;SDS011;41957;52.060;5.138;2022-12-29T07:44:20;13.68;;;3.08;;
56081;SDS011;41957;52.060;5.138;2022-12-29T07:46:46;13.82;;;2.53;;
56081;SDS011;41957;52.060;5.138;2022-12-29T07:49:11;11.02;;;2.40;;
56081;SDS011;41957;52.060;5.138;2022-12-29T07:51:37;12.05;;;2.22;;
56081;SDS011;41957;52.060;5.138;2022-12-29T07:54:02;11.88;;;2.22;;
56081;SDS011;41957;52.060;5.138;2022-12-29T07:56:28;11.07;;;2.40;;
56081;SDS011;41957;52.060;5.138;2022-12-29T07:58:53;17.58;;;2.72;;
56081;SDS011;41957;52.060;5.138;2022-12-29T08:01:18;14.30;;;2.80;;
56081;SDS011;41957;52.060;5.138;2022-12-29T08:03:44;11.30;;;2.40;;
56081;SDS011;41957;52.060;5.138;2022-12-29T08:06:10;12.07;;;2.50;;
56081;SDS011;41957;52.060;5.138;2022-12-29T08:08:36;12.25;;;2.83;;
56081;SDS011;41957;52.060;5.138;2022-12-29T08:11:01;13.32;;;2.55;;
56081;SDS011;41957;52.060;5.138;2022-12-29T08:13:26;14.18;;;2.42;;
56081;SDS011;41957;52.060;5.138;2022-12-29T08:15:52;13.70;;;2.97;;
56081;SDS011;41957;52.060;5.138;2022-12-29T08:18:17;13.57;;;2.78;;
56081;SDS011;41957;52.060;5.138;2022-12-29T08:20:42;12.00;;;2.60;;
56081;SDS011;41957;52.060;5.138;2022-12-29T08:23:08;13.38;;;2.67;;
56081;SDS011;41957;52.060;5.138;2022-12-29T08:25:33;12.75;;;2.50;;
56081;SDS011;41957;52.060;5.138;2022-12-29T08:27:58;12.43;;;2.45;;
56081;SDS011;41957;52.060;5.138;2022-12-29T08:30:24;12.45;;;2.58;;
56081;SDS011;41957;52.060;5.138;2022-12-29T08:32:49;13.07;;;2.95;;
56081;SDS011;41957;52.060;5.138;2022-12-29T08:35:15;13.93;;;2.55;;
56081;SDS011;41957;52.060;5.138;2022-12-29T08:37:40;13.00;;;2.50;;
56081;SDS011;41957;52.060;5.138;2022-12-29T08:40:05;15.18;;;2.80;;
56081;SDS011;41957;52.060;5.138;2022-12-29T08:42:32;13.75;;;2.78;;
56081;SDS011;41957;52.060;5.138;2022-12-29T08:44:58;11.32;;;2.58;;
56081;SDS011;41957;52.060;5.138;2022-12-29T08:47:24;15.18;;;3.00;;
56081;SDS011;41957;52.060;5.138;2022-12-29T08:49:50;11.23;;;2.88;;
56081;SDS011;41957;52.060;5.138;2022-12-29T08:52:16;12.88;;;2.90;;
56081;SDS011;41957;52.060;5.138;2022-12-29T08:54:42;14.63;;;2.97;;
56081;SDS011;41957;52.060;5.138;2022-12-29T08:57:07;14.85;;;3.30;;
56081;SDS011;41957;52.060;5.138;2022-12-29T08:59:33;12.77;;;3.15;;
56081;SDS011;41957;52.060;5.138;2022-12-29T09:01:58;12.43;;;2.92;;
56081;SDS011;41957;52.060;5.138;2022-12-29T09:04:23;14.85;;;2.78;;
56081;SDS011;41957;52.060;5.138;2022-12-29T09:06:49;16.25;;;3.15;;
56081;SDS011;41957;52.060;5.138;2022-12-29T09:09:14;14.57;;;3.10;;
56081;SDS011;41957;52.060;5.138;2022-12-29T09:11:40;12.65;;;3.00;;
56081;SDS011;41957;52.060;5.138;2022-12-29T09:14:07;14.63;;;2.95;;
56081;SDS011;41957;52.060;5.138;2022-12-29T09:16:32;14.43;;;3.00;;
56081;SDS011;41957;52.060;5.138;2022-12-29T09:18:58;11.25;;;2.67;;
56081;SDS011;41957;52.060;5.138;2022-12-29T09:21:23;15.57;;;3.42;;
56081;SDS011;41957;52.060;5.138;2022-12-29T09:23:48;15.85;;;3.00;;
56081;SDS011;41957;52.060;5.138;2022-12-29T09:26:14;13.68;;;2.97;;
56081;SDS011;41957;52.060;5.138;2022-12-29T09:28:39;13.95;;;2.80;;
56081;SDS011;41957;52.060;5.138;2022-12-29T09:31:05;14.45;;;2.83;;
56081;SDS011;41957;52.060;5.138;2022-12-29T09:33:30;12.25;;;2.75;;
56081;SDS011;41957;52.060;5.138;2022-12-29T09:35:58;13.07;;;3.08;;
56081;SDS011;41957;52.060;5.138;2022-12-29T09:38:24;12.13;;;2.70;;
56081;SDS011;41957;52.060;5.138;2022-12-29T09:40:51;13.68;;;2.65;;
56081;SDS011;41957;52.060;5.138;2022-12-29T09:43:43;11.05;;;2.70;;
56081;SDS011;41957;52.060;5.138;2022-12-29T09:46:32;9.93;;;2.40;;
56081;SDS011;41957;52.060;5.138;2022-12-29T09:49:47;15.23;;;2.90;;
56081;SDS011;41957;52.060;5.138;2022-12-29T09:51:54;12.90;;;2.70;;
56081;SDS011;41957;52.060;5.138;2022-12-29T09:54:39;13.60;;;2.80;;
56081;SDS011;41957;52.060;5.138;2022-12-29T09:57:27;14.95;;;3.20;;
56081;SDS011;41957;52.060;5.138;2022-12-29T09:59:58;15.18;;;2.90;;
56081;SDS011;41957;52.060;5.138;2022-12-29T10:02:34;12.95;;;2.67;;
56081;SDS011;41957;52.060;5.138;2022-12-29T10:05:03;13.40;;;2.70;;
56081;SDS011;41957;52.060;5.138;2022-12-29T10:07:52;13.70;;;2.90;;
56081;SDS011;41957;52.060;5.138;2022-12-29T10:23:52;12.30;;;2.58;;
56081;SDS011;41957;52.060;5.138;2022-12-29T10:26:19;11.43;;;2.60;;
56081;SDS011;41957;52.060;5.138;2022-12-29T10:28:52;11.52;;;2.20;;
56081;SDS011;41957;52.060;5.138;2022-12-29T10:31:22;12.27;;;2.47;;
56081;SDS011;41957;52.060;5.138;2022-12-29T10:33:55;10.95;;;2.67;;
56081;SDS011;41957;52.060;5.138;2022-12-29T10:41:36;12.77;;;2.67;;
56081;SDS011;41957;52.060;5.138;2022-12-29T10:44:07;11.13;;;2.63;;
56081;SDS011;41957;52.060;5.138;2022-12-29T10:46:38;14.82;;;3.08;;
56081;SDS011;41957;52.060;5.138;2022-12-29T10:49:04;10.73;;;2.67;;
56081;SDS011;41957;52.060;5.138;2022-12-29T10:51:36;15.27;;;2.85;;
56081;SDS011;41957;52.060;5.138;2022-12-29T10:56:50;12.18;;;2.85;;
56081;SDS011;41957;52.060;5.138;2022-12-29T10:59:24;13.98;;;3.40;;
56081;SDS011;41957;52.060;5.138;2022-12-29T11:07:15;13.93;;;2.70;;
56081;SDS011;41957;52.060;5.138;2022-12-29T11:09:42;15.30;;;2.97;;
56081;SDS011;41957;52.060;5.138;2022-12-29T11:20:24;16.88;;;3.55;;
56081;SDS011;41957;52.060;5.138;2022-12-29T11:22:51;13.27;;;3.28;;
56081;SDS011;41957;52.060;5.138;2022-12-29T11:25:17;17.83;;;3.72;;
56081;SDS011;41957;52.060;5.138;2022-12-29T11:27:54;17.45;;;3.83;;
56081;SDS011;41957;52.060;5.138;2022-12-29T11:30:25;16.33;;;3.50;;
56081;SDS011;41957;52.060;5.138;2022-12-29T11:32:53;19.60;;;3.80;;
56081;SDS011;41957;52.060;5.138;2022-12-29T11:35:30;14.57;;;3.30;;
56081;SDS011;41957;52.060;5.138;2022-12-29T11:37:57;53.13;;;15.27;;
56081;SDS011;41957;52.060;5.138;2022-12-29T11:40:23;37.67;;;8.98;;
56081;SDS011;41957;52.060;5.138;2022-12-29T11:42:53;23.55;;;6.45;;
56081;SDS011;41957;52.060;5.138;2022-12-29T11:45:21;22.38;;;5.50;;
56081;SDS011;41957;52.060;5.138;2022-12-29T11:47:50;21.67;;;5.65;;
56081;SDS011;41957;52.060;5.138;2022-12-29T11:50:22;20.73;;;5.05;;
56081;SDS011;41957;52.060;5.138;2022-12-29T11:55:27;21.48;;;4.90;;
56081;SDS011;41957;52.060;5.138;2022-12-29T11:57:54;22.38;;;5.25;;
56081;SDS011;41957;52.060;5.138;2022-12-29T12:00:22;17.73;;;4.30;;
56081;SDS011;41957;52.060;5.138;2022-12-29T12:03:11;20.25;;;4.85;;
56081;SDS011;41957;52.060;5.138;2022-12-29T12:05:48;18.85;;;4.75;;
56081;SDS011;41957;52.060;5.138;2022-12-29T12:08:22;17.80;;;4.47;;
56081;SDS011;41957;52.060;5.138;2022-12-29T12:13:54;18.45;;;4.10;;
56081;SDS011;41957;52.060;5.138;2022-12-29T12:16:27;21.08;;;4.65;;
56081;SDS011;41957;52.060;5.138;2022-12-29T12:21:56;20.55;;;4.93;;
56081;SDS011;41957;52.060;5.138;2022-12-29T12:32:39;17.63;;;4.30;;
56081;SDS011;41957;52.060;5.138;2022-12-29T12:35:12;18.65;;;4.55;;
56081;SDS011;41957;52.060;5.138;2022-12-29T12:43:25;17.92;;;4.25;;
56081;SDS011;41957;52.060;5.138;2022-12-29T12:46:17;17.73;;;4.07;;
56081;SDS011;41957;52.060;5.138;2022-12-29T12:51:56;16.73;;;4.50;;
56081;SDS011;41957;52.060;5.138;2022-12-29T12:55:02;16.10;;;4.25;;
56081;SDS011;41957;52.060;5.138;2022-12-29T12:57:55;19.33;;;4.50;;
56081;SDS011;41957;52.060;5.138;2022-12-29T13:00:48;18.10;;;3.95;;
56081;SDS011;41957;52.060;5.138;2022-12-29T13:03:34;18.95;;;3.60;;
56081;SDS011;41957;52.060;5.138;2022-12-29T13:06:37;15.52;;;3.90;;
56081;SDS011;41957;52.060;5.138;2022-12-29T13:09:11;15.82;;;3.53;;
56081;SDS011;41957;52.060;5.138;2022-12-29T13:11:51;17.00;;;4.00;;
56081;SDS011;41957;52.060;5.138;2022-12-29T13:14:37;18.38;;;3.88;;
56081;SDS011;41957;52.060;5.138;2022-12-29T13:19:47;20.85;;;4.05;;
56081;SDS011;41957;52.060;5.138;2022-12-29T13:22:51;15.40;;;3.65;;
56081;SDS011;41957;52.060;5.138;2022-12-29T13:25:24;17.23;;;4.13;;
56081;SDS011;41957;52.060;5.138;2022-12-29T13:30:41;17.13;;;4.10;;
56081;SDS011;41957;52.060;5.138;2022-12-29T13:33:47;17.13;;;3.47;;
56081;SDS011;41957;52.060;5.138;2022-12-29T13:36:37;18.20;;;3.85;;
56081;SDS011;41957;52.060;5.138;2022-12-29T13:39:25;15.90;;;3.83;;
56081;SDS011;41957;52.060;5.138;2022-12-29T13:41:56;16.05;;;3.80;;
56081;SDS011;41957;52.060;5.138;2022-12-29T13:44:23;18.65;;;3.95;;
56081;SDS011;41957;52.060;5.138;2022-12-29T13:46:53;18.45;;;4.03;;
56081;SDS011;41957;52.060;5.138;2022-12-29T13:49:22;14.40;;;3.80;;
56081;SDS011;41957;52.060;5.138;2022-12-29T13:51:55;19.45;;;3.95;;
56081;SDS011;41957;52.060;5.138;2022-12-29T13:59:54;15.55;;;3.85;;
56081;SDS011;41957;52.060;5.138;2022-12-29T14:05:31;18.77;;;3.90;;
56081;SDS011;41957;52.060;5.138;2022-12-29T14:08:03;23.23;;;4.18;;
56081;SDS011;41957;52.060;5.138;2022-12-29T14:13:05;16.77;;;3.80;;
56081;SDS011;41957;52.060;5.138;2022-12-29T14:15:39;28.85;;;4.40;;
56081;SDS011;41957;52.060;5.138;2022-12-29T14:18:14;15.20;;;3.40;;
56081;SDS011;41957;52.060;5.138;2022-12-29T14:20:53;16.90;;;3.78;;
56081;SDS011;41957;52.060;5.138;2022-12-29T14:23:27;16.17;;;3.90;;
56081;SDS011;41957;52.060;5.138;2022-12-29T14:28:40;14.52;;;3.10;;
56081;SDS011;41957;52.060;5.138;2022-12-29T14:31:52;14.85;;;3.47;;
56081;SDS011;41957;52.060;5.138;2022-12-29T14:36:36;12.35;;;2.80;;
56081;SDS011;41957;52.060;5.138;2022-12-29T14:44:34;14.27;;;3.35;;
56081;SDS011;41957;52.060;5.138;2022-12-29T14:49:55;12.68;;;2.97;;
56081;SDS011;41957;52.060;5.138;2022-12-29T14:54:54;13.48;;;2.80;;
56081;SDS011;41957;52.060;5.138;2022-12-29T14:57:27;16.88;;;3.00;;
56081;SDS011;41957;52.060;5.138;2022-12-29T15:00:00;16.63;;;2.83;;
56081;SDS011;41957;52.060;5.138;2022-12-29T15:02:32;13.98;;;3.25;;
56081;SDS011;41957;52.060;5.138;2022-12-29T15:05:03;13.73;;;3.00;;
56081;SDS011;41957;52.060;5.138;2022-12-29T15:07:29;14.35;;;2.72;;
56081;SDS011;41957;52.060;5.138;2022-12-29T15:10:03;12.30;;;2.95;;
56081;SDS011;41957;52.060;5.138;2022-12-29T15:15:23;17.05;;;3.15;;
56081;SDS011;41957;52.060;5.138;2022-12-29T15:17:54;14.15;;;3.65;;
56081;SDS011;41957;52.060;5.138;2022-12-29T15:20:26;13.25;;;3.35;;
56081;SDS011;41957;52.060;5.138;2022-12-29T15:22:57;15.23;;;3.33;;
56081;SDS011;41957;52.060;5.138;2022-12-29T15:25:28;14.45;;;2.92;;
56081;SDS011;41957;52.060;5.138;2022-12-29T15:27:57;15.93;;;3.38;;
56081;SDS011;41957;52.060;5.138;2022-12-29T15:30:26;11.63;;;2.83;;
56081;SDS011;41957;52.060;5.138;2022-12-29T15:32:51;16.70;;;3.40;;
56081;SDS011;41957;52.060;5.138;2022-12-29T15:35:36;15.10;;;2.75;;
56081;SDS011;41957;52.060;5.138;2022-12-29T15:38:15;15.05;;;3.25;;
56081;SDS011;41957;52.060;5.138;2022-12-29T15:40:49;14.57;;;2.85;;
56081;SDS011;41957;52.060;5.138;2022-12-29T15:45:56;14.80;;;3.03;;
56081;SDS011;41957;52.060;5.138;2022-12-29T15:48:22;14.88;;;3.05;;
56081;SDS011;41957;52.060;5.138;2022-12-29T15:50:49;17.38;;;3.55;;
56081;SDS011;41957;52.060;5.138;2022-12-29T15:53:23;16.10;;;3.15;;
56081;SDS011;41957;52.060;5.138;2022-12-29T15:55:53;12.73;;;2.60;;
56081;SDS011;41957;52.060;5.138;2022-12-29T15:58:24;16.73;;;3.60;;
56081;SDS011;41957;52.060;5.138;2022-12-29T16:00:53;12.77;;;2.72;;
56081;SDS011;41957;52.060;5.138;2022-12-29T16:03:27;16.20;;;3.00;;
56081;SDS011;41957;52.060;5.138;2022-12-29T16:06:06;15.15;;;3.38;;
56081;SDS011;41957;52.060;5.138;2022-12-29T16:08:35;13.07;;;2.75;;
56081;SDS011;41957;52.060;5.138;2022-12-29T16:11:03;14.57;;;2.97;;
56081;SDS011;41957;52.060;5.138;2022-12-29T16:13:41;12.63;;;2.90;;
56081;SDS011;41957;52.060;5.138;2022-12-29T16:16:09;15.15;;;2.83;;
56081;SDS011;41957;52.060;5.138;2022-12-29T16:18:43;10.55;;;2.50;;
56081;SDS011;41957;52.060;5.138;2022-12-29T16:21:16;16.10;;;2.90;;
56081;SDS011;41957;52.060;5.138;2022-12-29T16:26:23;12.50;;;2.53;;
56081;SDS011;41957;52.060;5.138;2022-12-29T16:28:59;11.80;;;2.42;;
56081;SDS011;41957;52.060;5.138;2022-12-29T16:31:34;9.63;;;2.00;;
56081;SDS011;41957;52.060;5.138;2022-12-29T16:34:23;11.60;;;2.45;;
56081;SDS011;41957;52.060;5.138;2022-12-29T16:37:02;9.68;;;2.28;;
56081;SDS011;41957;52.060;5.138;2022-12-29T16:39:46;14.32;;;2.50;;
56081;SDS011;41957;52.060;5.138;2022-12-29T16:48:19;12.07;;;2.30;;
56081;SDS011;41957;52.060;5.138;2022-12-29T16:50:46;11.52;;;2.40;;
56081;SDS011;41957;52.060;5.138;2022-12-29T16:53:20;12.75;;;2.60;;
56081;SDS011;41957;52.060;5.138;2022-12-29T16:55:50;16.95;;;2.58;;
56081;SDS011;41957;52.060;5.138;2022-12-29T16:58:24;12.05;;;2.78;;
56081;SDS011;41957;52.060;5.138;2022-12-29T17:00:55;11.65;;;2.72;;
56081;SDS011;41957;52.060;5.138;2022-12-29T17:03:23;10.52;;;2.70;;
56081;SDS011;41957;52.060;5.138;2022-12-29T17:05:57;12.52;;;2.75;;
56081;SDS011;41957;52.060;5.138;2022-12-29T17:08:23;12.55;;;2.58;;
56081;SDS011;41957;52.060;5.138;2022-12-29T17:10:51;11.27;;;2.70;;
56081;SDS011;41957;52.060;5.138;2022-12-29T17:13:38;13.00;;;2.92;;
56081;SDS011;41957;52.060;5.138;2022-12-29T17:16:04;11.43;;;2.72;;
56081;SDS011;41957;52.060;5.138;2022-12-29T17:18:34;13.48;;;2.95;;
56081;SDS011;41957;52.060;5.138;2022-12-29T17:21:00;11.80;;;2.60;;
56081;SDS011;41957;52.060;5.138;2022-12-29T17:23:25;12.77;;;2.92;;
56081;SDS011;41957;52.060;5.138;2022-12-29T17:25:51;12.90;;;2.83;;
56081;SDS011;41957;52.060;5.138;2022-12-29T17:28:19;11.93;;;2.60;;